Terminal Aerodrome Forecast
Issued by NWS

Current Version | Previous Version | Text Only | Print | Product List | Glossary On
Versions: 1 2 3 4 5 6 7 8 9 10 11 12 13 14 15 16 17
000
FTUS43 KIND 231700
TAFBMG
TAF
KBMG 231725Z 2318/2418 VRB03KT P6SM SCT250
     FM232000 20005KT P6SM BKN200
     FM240000 21001KT P6SM BKN100
     FM241500 24006KT P6SM BKN150=

USA.gov is the U.S. government's official web portal to all federal, state and local government web resources and services.